Time;durP1;ratioP1;P1;durP2;ratioP2;P2;SDS_P1;SDS_P2;PMS_P1;PMS_P2;Temp;Humidity;BMP_temperature;BMP_pressure;BME280_temperature;BME280_humidity;BME280_pressure;Samples;Min_cycle;Max_cycle;Signal;HPM_P1;HPM_P2
2022/07/30 00:00:18;;;;;;;;;5.00;5.00;;;;;25.50;47.65;98299.88;4944387;28;103979;-91
2022/07/30 00:02:51;;;;;;;;;5.00;5.00;;;;;25.50;47.88;98288.81;4905958;28;102416;-91
2022/07/30 00:05:18;;;;;;;;;5.33;5.33;;;;;25.52;47.83;98294.03;4882931;28;102508;-91
2022/07/30 00:07:46;;;;;;;;;5.00;4.00;;;;;25.49;47.81;98287.16;4928653;28;102986;-91
2022/07/30 00:10:13;;;;;;;;;6.00;6.00;;;;;25.50;47.79;98285.22;4921547;28;104081;-91
2022/07/30 00:12:40;;;;;;;;;6.33;6.33;;;;;25.49;47.71;98289.09;4940948;28;102562;-91
2022/07/30 00:15:08;;;;;;;;;4.00;4.00;;;;;25.50;47.69;98283.28;4930886;28;102871;-91
2022/07/30 00:17:35;;;;;;;;;5.00;5.00;;;;;25.50;48.08;98283.28;4922138;28;103045;-91
2022/07/30 00:20:03;;;;;;;;;6.00;6.00;;;;;25.51;47.75;98284.91;4927674;28;104287;-91
2022/07/30 00:22:31;;;;;;;;;5.00;5.00;;;;;25.51;47.51;98284.91;4920581;28;102703;-91
2022/07/30 00:24:58;;;;;;;;;5.00;5.00;;;;;25.51;47.74;98287.69;4914013;28;104303;-92
2022/07/30 00:27:25;;;;;;;;;5.00;5.00;;;;;25.48;47.67;98277.22;4929625;28;102727;-91
2022/07/30 00:29:53;;;;;;;;;5.33;5.33;;;;;25.50;47.62;98279.69;4928761;28;103753;-91
2022/07/30 00:32:20;;;;;;;;;6.67;5.00;;;;;25.50;47.75;98274.97;4938031;28;102600;-91
2022/07/30 00:34:47;;;;;;;;;5.33;4.67;;;;;25.50;47.46;98280.50;4941776;28;102639;-91
2022/07/30 00:37:15;;;;;;;;;5.33;4.67;;;;;25.50;47.65;98271.38;4930203;28;102839;-91
2022/07/30 00:39:42;;;;;;;;;5.00;5.00;;;;;25.51;47.76;98273.03;4927503;28;104000;-91
2022/07/30 00:42:10;;;;;;;;;5.33;4.67;;;;;25.49;47.84;98266.94;4934478;28;102584;-91
2022/07/30 00:44:37;;;;;;;;;6.33;6.00;;;;;25.47;47.76;98272.81;4947368;28;102625;-91
2022/07/30 00:47:06;;;;;;;;;6.67;6.33;;;;;25.49;47.82;98276.09;4940891;28;102442;-91
2022/07/30 00:49:33;;;;;;;;;5.00;5.00;;;;;25.46;47.78;98264.81;4925193;28;104012;-91
2022/07/30 00:52:01;;;;;;;;;4.33;4.33;;;;;25.49;47.75;98270.53;4923519;28;102763;-91
2022/07/30 00:54:28;;;;;;;;;4.33;4.33;;;;;25.49;47.69;98272.50;4934600;28;102256;-91
2022/07/30 00:56:55;;;;;;;;;5.00;5.00;;;;;25.49;47.53;98269.72;4940464;28;103523;-91
2022/07/30 00:59:22;;;;;;;;;6.33;6.00;;;;;25.47;47.73;98260.91;4944003;28;104325;-91
2022/07/30 01:01:49;;;;;;;;;5.67;5.00;;;;;25.48;47.63;98259.78;4941122;28;102640;-91
2022/07/30 01:04:16;;;;;;;;;5.33;5.33;;;;;25.46;47.75;98254.56;4919184;28;102479;-91
2022/07/30 01:06:43;;;;;;;;;4.67;4.67;;;;;25.47;47.59;98247.91;4922756;28;104494;-91
2022/07/30 01:09:11;;;;;;;;;4.33;4.33;;;;;25.44;47.53;98234.66;4921033;28;104300;-91
2022/07/30 01:11:39;;;;;;;;;5.00;5.00;;;;;25.47;47.67;98245.13;4928852;28;102353;-91
2022/07/30 01:14:07;;;;;;;;;5.33;5.00;;;;;25.47;47.57;98233.22;4941890;28;102364;-90
2022/07/30 01:16:35;;;;;;;;;6.00;6.00;;;;;25.45;47.47;98230.75;4925859;28;102208;-91
2022/07/30 01:22:02;;;;;;;;;6.33;5.33;;;;;25.45;47.56;98225.22;4925480;28;102255;-91
2022/07/30 01:24:34;;;;;;;;;4.00;4.00;;;;;25.45;47.65;98214.16;4936147;28;103962;-91
2022/07/30 01:27:01;;;;;;;;;5.00;5.00;;;;;25.45;47.65;98202.25;4913688;28;103137;-90
2022/07/30 01:29:30;;;;;;;;;7.00;5.33;;;;;25.44;47.87;98204.19;4941113;28;103473;-91
2022/07/30 01:31:58;;;;;;;;;5.00;5.00;;;;;25.44;47.83;98206.97;4932610;28;102283;-90
2022/07/30 01:34:30;;;;;;;;;5.00;5.00;;;;;25.43;47.59;98210.88;4920112;28;102469;-91
2022/07/30 01:36:57;;;;;;;;;4.00;4.00;;;;;25.45;47.75;98207.78;4928072;28;103628;-91
2022/07/30 01:39:25;;;;;;;;;6.00;5.00;;;;;25.46;47.56;98209.44;4942633;28;104510;-91
2022/07/30 01:41:53;;;;;;;;;4.00;4.00;;;;;25.40;47.60;98194.88;4928632;28;103218;-91
2022/07/30 01:44:22;;;;;;;;;6.00;5.33;;;;;25.44;47.63;98198.66;4927410;28;102758;-91
2022/07/30 01:46:49;;;;;;;;;5.00;4.33;;;;;25.41;47.76;98196.50;4944991;28;102583;-91
2022/07/30 01:49:18;;;;;;;;;6.00;4.67;;;;;25.41;47.71;98190.97;4928201;28;104336;-91
2022/07/30 01:51:46;;;;;;;;;4.67;4.67;;;;;25.41;47.77;98185.44;4930459;28;102436;-91
2022/07/30 01:54:13;;;;;;;;;4.33;3.67;;;;;25.43;47.67;98194.28;4930158;28;102475;-91
2022/07/30 01:56:40;;;;;;;;;4.67;4.67;;;;;25.43;47.74;98194.28;4930189;28;105104;-91
2022/07/30 01:59:07;;;;;;;;;5.33;5.00;;;;;25.44;47.41;98190.34;4912955;28;104318;-91
2022/07/30 02:01:34;;;;;;;;;5.67;5.00;;;;;25.42;47.79;98181.56;4927462;28;104602;-91
2022/07/30 02:04:01;;;;;;;;;4.00;4.00;;;;;25.42;47.67;98162.19;4937761;28;102512;-91
2022/07/30 02:06:32;;;;;;;;;4.33;4.33;;;;;25.40;47.77;98161.66;4941373;28;104964;-90
2022/07/30 02:09:01;;;;;;;;;4.33;3.67;;;;;25.41;47.83;98173.53;4920041;28;109945;-91
2022/07/30 02:14:33;;;;;;;;;1.67;1.67;;;;;25.41;47.65;98182.66;4921376;28;102607;-91
2022/07/30 02:17:00;;;;;;;;;4.33;4.33;;;;;25.42;47.82;98173.25;4919638;28;104012;-91
2022/07/30 02:19:32;;;;;;;;;5.00;5.00;;;;;25.41;47.79;98185.44;4927978;28;103450;-90
2022/07/30 02:22:04;;;;;;;;;4.00;4.00;;;;;25.41;47.58;98182.66;4935305;28;102440;-91
2022/07/30 02:24:36;;;;;;;;;3.33;3.33;;;;;25.40;47.65;98188.53;4945562;28;102486;-91
2022/07/30 02:27:07;;;;;;;;;4.00;4.00;;;;;25.36;47.68;98182.78;4914353;28;104002;-91
2022/07/30 02:29:34;;;;;;;;;4.33;4.00;;;;;25.39;47.73;98184.94;4932600;28;103149;-91
2022/07/30 02:32:04;;;;;;;;;4.00;3.33;;;;;25.39;47.65;98196.03;4923471;28;102208;-91
2022/07/30 02:34:32;;;;;;;;;5.00;4.33;;;;;25.40;47.61;98196.84;4939394;28;102248;-91
2022/07/30 02:36:59;;;;;;;;;4.00;4.00;;;;;25.38;47.70;98196.31;4907731;28;102840;-90
2022/07/30 02:39:27;;;;;;;;;3.00;3.00;;;;;25.39;47.71;98203.50;4927569;28;104073;-91
2022/07/30 02:41:54;;;;;;;;;5.67;5.33;;;;;25.38;47.62;98199.91;4928951;28;103078;-91
2022/07/30 02:44:21;;;;;;;;;5.00;4.33;;;;;25.40;47.64;98200.41;4924575;28;102259;-91
2022/07/30 02:46:48;;;;;;;;;4.00;4.00;;;;;25.38;47.69;98202.69;4945621;28;102437;-91
2022/07/30 02:49:15;;;;;;;;;4.67;4.67;;;;;25.39;47.86;98195.19;4943533;28;104174;-91
2022/07/30 02:51:42;;;;;;;;;5.00;4.00;;;;;25.37;47.62;98189.94;4938483;28;102386;-91
2022/07/30 02:54:10;;;;;;;;;3.67;3.67;;;;;25.38;47.81;98199.91;4948586;28;102274;-91
2022/07/30 02:56:38;;;;;;;;;5.00;4.33;;;;;25.39;47.67;98196.03;4915819;28;102632;-91
2022/07/30 02:59:05;;;;;;;;;4.00;3.00;;;;;25.38;47.50;98194.38;4915389;28;104109;-91
2022/07/30 03:01:32;;;;;;;;;5.00;5.00;;;;;25.38;47.71;98183.28;4928874;28;102616;-91
2022/07/30 03:03:59;;;;;;;;;4.33;3.67;;;;;25.38;47.77;98186.06;4930633;28;104796;-91
2022/07/30 03:06:26;;;;;;;;;5.00;5.00;;;;;25.38;47.79;98190.78;4917873;28;102377;-91
2022/07/30 03:08:53;;;;;;;;;4.00;4.00;;;;;25.37;47.79;98192.72;4948836;28;104097;-91
2022/07/30 03:11:23;;;;;;;;;5.00;5.00;;;;;25.36;47.80;98191.06;4948165;28;102583;-91
2022/07/30 03:13:50;;;;;;;;;4.67;4.67;;;;;25.37;47.45;98180.81;4932090;28;102554;-91
2022/07/30 03:16:18;;;;;;;;;4.00;3.00;;;;;25.37;47.60;98178.88;4947684;28;102853;-91
2022/07/30 03:18:45;;;;;;;;;6.67;4.00;;;;;25.35;47.55;98170.09;4945086;28;104414;-91
2022/07/30 03:21:12;;;;;;;;;4.67;4.67;;;;;25.36;47.65;98173.66;4931995;28;104649;-91
2022/07/30 03:23:39;;;;;;;;;3.33;3.33;;;;;25.36;47.56;98166.16;4946229;28;102772;-90
2022/07/30 03:26:07;;;;;;;;;4.33;3.33;;;;;25.37;47.43;98176.13;4925681;28;104085;-91
2022/07/30 03:28:36;;;;;;;;;3.33;3.33;;;;;25.36;47.69;98176.41;4927915;28;104196;-91
2022/07/30 03:31:04;;;;;;;;;4.33;4.33;;;;;25.36;47.60;98163.41;4929154;28;103043;-91
2022/07/30 03:33:31;;;;;;;;;4.00;4.00;;;;;25.35;47.68;98161.78;4938509;28;102557;-91
2022/07/30 03:36:05;;;;;;;;;5.00;3.67;;;;;25.34;47.63;98162.91;4919232;28;102694;-91
2022/07/30 03:38:34;;;;;;;;;4.00;4.00;;;;;25.36;47.78;98166.16;4929094;28;104108;-91
2022/07/30 03:41:01;;;;;;;;;4.67;4.67;;;;;25.33;47.61;98156.53;4930644;28;102503;-91
2022/07/30 03:43:28;;;;;;;;;4.67;4.00;;;;;25.33;47.71;98155.72;4947001;28;102738;-91
2022/07/30 03:46:00;;;;;;;;;5.00;5.00;;;;;25.33;47.72;98159.31;4921499;28;102256;-91
2022/07/30 03:48:27;;;;;;;;;4.00;4.00;;;;;25.33;48.08;98169.56;4917066;28;104137;-91
2022/07/30 03:50:54;;;;;;;;;3.00;3.00;;;;;25.33;47.63;98172.31;4951785;28;102084;-91
2022/07/30 03:53:23;;;;;;;;;4.00;4.00;;;;;25.31;47.61;98177.34;4922964;28;102219;-91
2022/07/30 03:55:53;;;;;;;;;4.00;3.00;;;;;25.31;47.60;98182.88;4948907;28;102602;-91
2022/07/30 03:58:20;;;;;;;;;4.00;4.00;;;;;25.31;47.84;98194.75;4916008;28;108236;-91
2022/07/30 04:00:48;;;;;;;;;5.00;4.67;;;;;25.29;47.83;98188.72;4925458;28;102241;-91
2022/07/30 04:03:25;;;;;;;;;4.00;3.33;;;;;25.33;47.72;98194.47;4915399;28;102459;-90
2022/07/30 04:05:52;;;;;;;;;4.00;4.00;;;;;25.32;47.90;98201.94;4932891;28;102251;-91
2022/07/30 04:08:19;;;;;;;;;3.33;3.33;;;;;25.32;47.81;98195.59;4930658;28;109036;-91
2022/07/30 04:10:47;;;;;;;;;3.00;3.00;;;;;25.32;47.68;98192.81;4930898;28;102515;-91
2022/07/30 04:13:14;;;;;;;;;4.00;3.67;;;;;25.31;47.59;98192.00;4928652;28;102251;-90
2022/07/30 04:15:50;;;;;;;;;5.00;5.00;;;;;25.31;47.52;98189.22;4948517;28;102514;-90
2022/07/30 04:18:39;;;;;;;;;3.33;3.33;;;;;25.30;47.60;98195.09;4936611;28;109606;-91
2022/07/30 04:21:06;;;;;;;;;4.00;4.00;;;;;25.30;47.82;98197.84;4923541;28;102601;-91
2022/07/30 04:23:43;;;;;;;;;4.00;4.00;;;;;25.31;47.73;98193.94;4949432;28;102494;-91
2022/07/30 04:26:31;;;;;;;;;3.67;3.67;;;;;25.29;47.86;98198.97;4930993;28;103050;-90
2022/07/30 04:28:59;;;;;;;;;3.33;3.33;;;;;25.29;47.94;98196.22;4946745;28;104285;-91
2022/07/30 04:31:26;;;;;;;;;4.00;4.00;;;;;25.30;47.74;98186.78;4946332;28;102651;-91
2022/07/30 04:33:54;;;;;;;;;5.00;5.00;;;;;25.28;47.83;98175.19;4951005;28;102188;-91
2022/07/30 04:36:24;;;;;;;;;4.33;3.33;;;;;25.27;48.00;98185.44;4933148;28;103425;-91
2022/07/30 04:38:51;;;;;;;;;4.33;4.00;;;;;25.28;47.93;98189.03;4946740;28;107960;-91
2022/07/30 04:41:18;;;;;;;;;4.00;4.00;;;;;25.26;47.82;98189.31;4949420;28;102252;-92
2022/07/30 04:43:45;;;;;;;;;4.33;4.00;;;;;25.27;47.98;98196.50;4947202;28;102684;-91
2022/07/30 04:46:13;;;;;;;;;4.00;4.00;;;;;25.28;47.98;98195.38;4944919;28;102193;-91
2022/07/30 04:48:40;;;;;;;;;3.67;3.67;;;;;25.25;48.02;98195.19;4927391;28;111021;-91
2022/07/30 04:51:25;;;;;;;;;3.33;3.33;;;;;25.25;48.18;98195.19;4932257;28;102137;-91
2022/07/30 04:53:52;;;;;;;;;4.00;4.00;;;;;25.24;48.16;98197.13;4942162;28;103439;-91
2022/07/30 04:56:20;;;;;;;;;4.00;4.00;;;;;25.24;47.78;98196.31;4930304;28;102303;-91
2022/07/30 04:58:47;;;;;;;;;4.33;4.33;;;;;25.21;48.07;98194.16;4922809;28;104453;-91
2022/07/30 05:01:17;;;;;;;;;4.00;4.00;;;;;25.21;48.20;98185.84;4922221;28;102407;-91
2022/07/30 05:03:45;;;;;;;;;4.00;4.00;;;;;25.22;47.89;98199.38;4924872;28;102458;-91
2022/07/30 05:06:12;;;;;;;;;2.33;2.33;;;;;25.23;48.19;98192.72;4937727;28;102687;-91
2022/07/30 05:08:39;;;;;;;;;2.67;2.67;;;;;25.25;48.15;98197.94;4936106;28;104330;-91
2022/07/30 05:11:11;;;;;;;;;4.33;4.33;;;;;25.23;48.17;98201.00;4911437;28;102300;-91
2022/07/30 05:13:41;;;;;;;;;5.00;4.33;;;;;25.25;48.08;98209.03;4924060;28;102295;-91
2022/07/30 05:16:11;;;;;;;;;3.33;3.33;;;;;25.23;48.16;98205.72;4941768;28;102553;-91
2022/07/30 05:18:39;;;;;;;;;4.67;4.00;;;;;25.24;47.93;98202.66;4946534;28;103155;-91
2022/07/30 05:21:06;;;;;;;;;2.00;2.00;;;;;25.24;48.18;98199.91;4946767;28;102381;-91
2022/07/30 05:23:33;;;;;;;;;4.00;4.00;;;;;25.26;48.10;98199.59;4926038;28;102951;-91
2022/07/30 05:26:00;;;;;;;;;2.67;2.67;;;;;25.25;48.18;98189.66;4951017;28;102459;-91
2022/07/30 05:28:28;;;;;;;;;3.33;3.33;;;;;25.25;48.07;98189.66;4936678;28;104096;-90
2022/07/30 05:30:55;;;;;;;;;3.67;3.67;;;;;25.26;48.09;98194.06;4945373;28;104847;-91
2022/07/30 05:33:23;;;;;;;;;4.00;4.00;;;;;25.24;48.09;98194.34;4948140;28;102431;-91
2022/07/30 05:36:08;;;;;;;;;3.33;3.00;;;;;25.27;48.08;98195.69;4930223;28;102682;-91
2022/07/30 05:38:35;;;;;;;;;3.33;3.33;;;;;25.26;47.87;98188.53;4950570;28;104394;-91
2022/07/30 05:41:02;;;;;;;;;4.33;3.67;;;;;25.27;47.84;98195.69;4922513;28;103582;-91
2022/07/30 05:43:29;;;;;;;;;2.33;2.33;;;;;25.30;47.92;98200.63;4935049;28;102184;-91
2022/07/30 05:45:56;;;;;;;;;2.00;2.00;;;;;25.25;48.11;98204.31;4946197;28;102715;-91
2022/07/30 05:48:23;;;;;;;;;5.33;4.00;;;;;25.28;47.83;98200.91;4945672;28;103063;-91
2022/07/30 05:50:50;;;;;;;;;4.00;4.00;;;;;25.29;47.81;98208.09;4912373;28;104072;-91
2022/07/30 05:53:17;;;;;;;;;5.00;3.33;;;;;25.27;47.85;98196.50;4926236;28;104105;-91
2022/07/30 05:55:44;;;;;;;;;5.00;4.00;;;;;25.30;47.80;98203.41;4945535;28;102600;-91
2022/07/30 05:58:11;;;;;;;;;3.00;3.00;;;;;25.31;48.03;98208.59;4945748;28;104079;-91
2022/07/30 06:00:39;;;;;;;;;3.00;3.00;;;;;25.31;47.88;98205.00;4934032;28;102559;-91
2022/07/30 06:03:06;;;;;;;;;4.00;3.67;;;;;25.29;47.97;98207.28;4925964;28;102035;-91
2022/07/30 06:05:33;;;;;;;;;4.00;3.00;;;;;25.26;48.57;98205.94;4943845;28;102361;-91
2022/07/30 06:08:01;;;;;;;;;3.33;2.67;;;;;25.30;48.36;98200.63;4926747;28;104039;-91
2022/07/30 06:10:28;;;;;;;;;4.00;4.00;;;;;25.28;48.31;98202.88;4922143;28;102641;-91
2022/07/30 06:12:55;;;;;;;;;5.00;5.00;;;;;25.30;48.41;98203.41;4930899;28;102320;-91
2022/07/30 06:15:22;;;;;;;;;5.00;4.00;;;;;25.30;48.05;98200.63;4930016;28;102646;-91
2022/07/30 06:17:52;;;;;;;;;4.00;4.00;;;;;25.28;48.00;98203.69;4862514;28;108233;-91
2022/07/30 06:20:28;;;;;;;;;4.00;4.00;;;;;25.30;48.12;98203.41;4949050;28;102701;-91
2022/07/30 06:22:55;;;;;;;;;4.00;4.00;;;;;25.29;48.17;98205.34;4935099;28;102410;-91
2022/07/30 06:25:22;;;;;;;;;4.33;3.00;;;;;25.30;48.05;98201.44;4951436;28;102396;-91
2022/07/30 06:27:49;;;;;;;;;3.33;3.33;;;;;25.29;47.94;98198.97;4920979;28;103016;-91
2022/07/30 06:30:16;;;;;;;;;1.33;1.33;;;;;25.29;48.04;98196.22;4929350;28;102191;-91
2022/07/30 06:32:44;;;;;;;;;3.00;3.00;;;;;25.31;48.03;98202.25;4933385;28;102684;-91
2022/07/30 06:35:14;;;;;;;;;4.00;4.00;;;;;25.33;47.73;98194.47;4930971;28;102167;-91
2022/07/30 06:37:41;;;;;;;;;2.00;2.00;;;;;25.34;47.76;98190.56;4945593;28;104063;-91
2022/07/30 06:40:28;;;;;;;;;3.00;2.33;;;;;25.33;47.88;98186.97;4937248;28;102544;-91
2022/07/30 06:42:55;;;;;;;;;3.00;3.00;;;;;25.35;47.93;98191.41;4951490;28;102386;-92
2022/07/30 06:45:22;;;;;;;;;3.00;3.00;;;;;25.36;47.70;98184.72;4935506;28;102718;-91
2022/07/30 06:47:57;;;;;;;;;3.33;3.33;;;;;25.36;47.86;98187.47;4950256;28;104404;-91
2022/07/30 06:50:24;;;;;;;;;3.00;3.00;;;;;25.36;47.71;98187.47;4949018;28;102430;-91
2022/07/30 06:52:52;;;;;;;;;4.00;3.00;;;;;25.36;47.93;98180.00;4934470;28;102730;-91
2022/07/30 06:55:19;;;;;;;;;3.00;2.00;;;;;25.33;47.62;98173.16;4930512;28;102660;-92
2022/07/30 06:57:46;;;;;;;;;2.00;2.00;;;;;25.33;47.80;98169.56;4917817;28;103134;-91
2022/07/30 07:00:13;;;;;;;;;2.00;2.00;;;;;25.36;47.69;98173.66;4932722;28;102184;-91
2022/07/30 07:02:41;;;;;;;;;4.00;3.00;;;;;25.32;47.81;98165.13;4933183;28;102552;-91
2022/07/30 07:05:08;;;;;;;;;3.33;2.67;;;;;25.34;47.77;98168.44;4926988;28;102231;-91
2022/07/30 07:07:36;;;;;;;;;3.00;3.00;;;;;25.35;47.90;98169.25;4936833;28;104230;-91
2022/07/30 07:10:10;;;;;;;;;4.00;4.00;;;;;25.33;47.73;98158.47;4948239;28;102551;-90
2022/07/30 07:12:37;;;;;;;;;3.33;3.33;;;;;25.32;47.80;98165.97;4950639;28;102635;-91
2022/07/30 07:15:04;;;;;;;;;4.33;3.67;;;;;25.36;47.96;98166.16;4931700;28;102623;-91
2022/07/30 07:17:31;;;;;;;;;1.33;1.33;;;;;25.37;47.72;98162.28;4934629;28;104066;-92
2022/07/30 07:19:59;;;;;;;;;2.33;2.33;;;;;25.35;47.94;98160.94;4944367;28;102764;-91
2022/07/30 07:22:28;;;;;;;;;3.00;2.67;;;;;25.37;47.85;98162.28;4935959;28;102080;-91
2022/07/30 07:24:55;;;;;;;;;2.33;2.33;;;;;25.36;47.68;98155.09;4943603;28;102649;-91
2022/07/30 07:27:22;;;;;;;;;3.67;3.00;;;;;25.37;47.66;98159.50;4932341;28;108760;-91
2022/07/30 07:29:49;;;;;;;;;2.00;2.00;;;;;25.38;47.57;98158.38;4929747;28;102538;-91
2022/07/30 07:32:34;;;;;;;;;1.67;1.67;;;;;25.37;47.55;98150.38;4887334;28;102406;-91
2022/07/30 07:35:01;;;;;;;;;2.67;2.67;;;;;25.37;47.79;98156.72;4897182;28;102307;-91
2022/07/30 07:37:29;;;;;;;;;3.00;3.00;;;;;25.38;47.45;98146.50;4933716;28;103273;-91
2022/07/30 07:39:56;;;;;;;;;3.00;3.00;;;;;25.36;47.76;98144.03;4901892;28;102531;-92
2022/07/30 07:42:23;;;;;;;;;3.00;2.00;;;;;25.37;47.56;98144.84;4953096;28;102471;-91
2022/07/30 07:44:50;;;;;;;;;4.00;4.00;;;;;25.41;47.60;98157.75;4929996;28;102478;-91
2022/07/30 07:47:17;;;;;;;;;3.00;3.00;;;;;25.37;47.54;98150.38;4934652;28;104068;-91
2022/07/30 07:49:44;;;;;;;;;1.33;1.33;;;;;25.39;47.54;98154.50;4933749;28;102114;-91
2022/07/30 07:52:13;;;;;;;;;4.00;3.67;;;;;25.41;47.65;98162.47;4910855;28;102479;-91
2022/07/30 07:54:40;;;;;;;;;5.00;2.00;;;;;25.42;47.59;98169.66;4947186;28;102298;-91
2022/07/30 07:57:08;;;;;;;;;1.00;1.00;;;;;25.43;47.65;98163.00;4949132;28;104528;-91
2022/07/30 07:59:37;;;;;;;;;0.00;0.00;;;;;25.44;47.56;98164.66;4949776;28;102428;-91
2022/07/30 08:02:06;;;;;;;;;3.00;2.00;;;;;25.44;47.65;98159.91;4920992;28;102487;-91
2022/07/30 08:04:34;;;;;;;;;3.33;2.00;;;;;25.44;47.53;98159.91;4878477;28;102678;-91
2022/07/30 08:07:01;;;;;;;;;3.00;3.00;;;;;25.44;47.62;98157.13;4932780;28;104543;-91
2022/07/30 08:09:29;;;;;;;;;3.00;3.00;;;;;25.43;47.51;98160.22;4937151;28;102589;-91
2022/07/30 08:12:11;;;;;;;;;2.67;2.67;;;;;25.46;47.51;98157.66;4909171;28;102129;-91
2022/07/30 08:14:38;;;;;;;;;4.00;4.00;;;;;25.46;48.09;98160.44;4948429;28;102257;-91
2022/07/30 08:17:05;;;;;;;;;2.00;2.00;;;;;25.45;47.64;98155.19;4938238;28;104061;-91
2022/07/30 08:19:33;;;;;;;;;2.33;2.33;;;;;25.42;47.68;98137.25;4932662;28;102469;-91
2022/07/30 08:22:00;;;;;;;;;3.00;3.00;;;;;25.44;47.41;98140.53;4926115;28;103507;-91
2022/07/30 08:24:27;;;;;;;;;3.33;3.33;;;;;25.47;47.38;98130.78;4949934;28;102531;-91
2022/07/30 08:26:54;;;;;;;;;3.33;3.00;;;;;25.47;47.60;98131.63;4949860;28;103995;-91
2022/07/30 08:29:21;;;;;;;;;2.67;2.67;;;;;25.46;47.46;98127.19;4925921;28;102669;-91
2022/07/30 08:31:48;;;;;;;;;4.00;3.00;;;;;25.45;47.42;98122.78;4940832;28;102098;-91
2022/07/30 08:34:15;;;;;;;;;2.67;2.67;;;;;25.47;47.52;98126.09;4928481;28;103723;-91
2022/07/30 08:36:42;;;;;;;;;4.00;3.00;;;;;25.50;47.36;98121.88;4927149;28;104281;-92
2022/07/30 08:39:09;;;;;;;;;3.00;3.00;;;;;25.49;47.51;98122.97;4911145;28;102527;-91
2022/07/30 08:41:36;;;;;;;;;3.00;3.00;;;;;25.48;47.44;98115.84;4895715;28;102779;-91
2022/07/30 08:44:27;;;;;;;;;3.33;3.33;;;;;25.50;47.34;98125.44;4935138;28;102479;-91
2022/07/30 08:46:55;;;;;;;;;3.67;3.67;;;;;25.49;47.45;98114.69;4925482;28;109033;-91
2022/07/30 08:49:22;;;;;;;;;3.00;3.00;;;;;25.50;47.36;98117.16;4916076;28;103486;-91
2022/07/30 08:51:50;;;;;;;;;3.00;3.00;;;;;25.52;47.49;98114.09;4874224;28;102526;-91
2022/07/30 08:54:17;;;;;;;;;3.00;2.00;;;;;25.49;47.53;98115.50;4910885;28;102686;-92
2022/07/30 08:56:44;;;;;;;;;2.67;2.67;;;;;25.50;47.63;98103.31;4895005;28;104259;-91
2022/07/30 08:59:11;;;;;;;;;2.00;2.00;;;;;25.49;47.34;98104.44;4907828;28;102598;-91
2022/07/30 09:01:38;;;;;;;;;3.67;3.67;;;;;25.49;47.31;98111.91;4897688;28;102282;-91
2022/07/30 09:04:05;;;;;;;;;2.00;2.00;;;;;25.50;47.28;98102.47;4909902;28;102737;-91
2022/07/30 09:06:32;;;;;;;;;2.00;2.00;;;;;25.52;47.32;98103.81;4910047;28;104295;-91
2022/07/30 09:09:00;;;;;;;;;2.00;2.00;;;;;25.51;47.22;98095.81;4911045;28;102571;-91
2022/07/30 09:11:27;;;;;;;;;2.00;1.00;;;;;25.53;47.33;98105.44;4892074;28;102130;-92
2022/07/30 09:13:54;;;;;;;;;3.00;3.00;;;;;25.51;47.40;98095.81;4916733;28;102122;-92
2022/07/30 09:16:23;;;;;;;;;3.67;3.00;;;;;25.51;47.42;98093.88;4912933;28;104100;-91
2022/07/30 09:18:50;;;;;;;;;2.33;2.33;;;;;25.53;47.29;98099.13;4915177;28;102638;-91
2022/07/30 09:21:20;;;;;;;;;3.67;3.67;;;;;25.53;47.32;98099.91;4917904;28;102533;-91
2022/07/30 09:24:04;;;;;;;;;3.67;3.67;;;;;25.55;47.31;98096.88;4919009;28;102261;-91
2022/07/30 09:26:34;;;;;;;;;3.00;3.00;;;;;25.57;47.28;98100.97;4888459;28;110091;-91
2022/07/30 09:29:24;;;;;;;;;3.33;2.33;;;;;25.54;47.31;98104.34;4910984;28;103084;-91
2022/07/30 09:31:59;;;;;;;;;2.00;2.00;;;;;25.55;47.15;98100.47;4906657;28;102236;-91
2022/07/30 09:34:27;;;;;;;;;2.00;2.00;;;;;25.58;47.28;98105.38;4912056;28;102887;-92
2022/07/30 09:36:58;;;;;;;;;3.00;3.00;;;;;25.56;47.17;98099.34;4914612;28;104451;-91
2022/07/30 09:39:38;;;;;;;;;1.00;1.00;;;;;25.58;47.32;98097.06;4901494;28;103343;-91
2022/07/30 09:42:22;;;;;;;;;2.67;2.67;;;;;25.59;47.22;98101.47;4891855;28;102637;-91
2022/07/30 09:44:49;;;;;;;;;1.00;1.00;;;;;25.59;46.90;98095.94;4911458;28;102737;-91
2022/07/30 09:47:43;;;;;;;;;2.67;2.67;;;;;25.60;47.08;98094.81;4898138;28;108843;-91
2022/07/30 09:50:15;;;;;;;;;4.00;2.33;;;;;25.59;47.43;98081.28;4906223;28;102237;-91
2022/07/30 09:53:05;;;;;;;;;3.50;3.00;;;;;25.62;47.24;98086.22;4899084;28;102804;-91
2022/07/30 09:55:34;;;;;;;;;2.00;2.00;;;;;25.62;47.17;98078.69;4929458;28;102447;-90
2022/07/30 09:58:06;;;;;;;;;1.00;1.00;;;;;25.64;47.19;98075.63;4929104;28;103297;-91
2022/07/30 10:00:34;;;;;;;;;2.67;2.67;;;;;25.62;47.12;98066.81;4930658;28;102331;-91
2022/07/30 10:03:17;;;;;;;;;1.67;1.67;;;;;25.63;47.10;98066.50;4910286;28;104239;-92
2022/07/30 10:06:00;;;;;;;;;2.33;2.33;;;;;25.65;47.19;98058.72;4927316;28;103233;-91
2022/07/30 10:08:46;;;;;;;;;1.67;1.67;;;;;25.67;47.22;98061.97;4925070;28;103346;-91
2022/07/30 10:11:24;;;;;;;;;5.67;3.00;;;;;25.66;47.08;98054.00;4932721;28;102437;-91
2022/07/30 10:14:02;;;;;;;;;1.67;1.67;;;;;25.67;47.28;98050.88;4927852;28;102525;-91
2022/07/30 10:16:29;;;;;;;;;1.00;1.00;;;;;25.68;47.12;98055.31;4897667;28;102400;-91
2022/07/30 10:18:59;;;;;;;;;1.67;1.67;;;;;25.69;47.11;98051.41;4932370;28;104198;-91
2022/07/30 10:21:27;;;;;;;;;2.00;2.00;;;;;25.70;47.06;98050.28;4933652;28;105636;-91
2022/07/30 10:23:58;;;;;;;;;3.00;2.00;;;;;25.73;47.01;98049.66;4928272;28;102456;-91
2022/07/30 10:26:25;;;;;;;;;2.00;2.00;;;;;25.71;46.76;98045.56;4917366;28;103410;-91
2022/07/30 10:28:52;;;;;;;;;3.00;3.00;;;;;25.72;46.91;98047.19;4927473;28;104225;-91
2022/07/30 10:31:19;;;;;;;;;0.33;0.33;;;;;25.75;46.94;98052.94;4911305;28;102575;-91
2022/07/30 10:34:06;;;;;;;;;1.67;1.67;;;;;25.76;46.85;98042.66;4914875;28;102777;-91
2022/07/30 10:36:46;;;;;;;;;3.00;3.00;;;;;25.75;46.71;98052.94;4929433;28;106174;-91
2022/07/30 10:39:19;;;;;;;;;1.00;1.00;;;;;25.76;46.80;98051.78;4924694;28;103878;-91
2022/07/30 10:41:46;;;;;;;;;2.00;2.00;;;;;25.77;46.79;98056.19;4913850;28;102194;-91
2022/07/30 10:44:45;;;;;;;;;2.33;2.33;;;;;25.77;46.86;98061.72;4930411;28;102425;-91
2022/07/30 10:47:15;;;;;;;;;2.00;2.00;;;;;25.76;46.93;98049.00;4914546;28;102637;-91
2022/07/30 10:49:48;;;;;;;;;2.33;2.33;;;;;25.75;46.96;98047.41;4905225;28;104771;-91
2022/07/30 10:52:42;;;;;;;;;2.00;2.00;;;;;25.76;46.92;98049.00;4893805;28;102529;-90
2022/07/30 10:55:17;;;;;;;;;3.00;3.00;;;;;25.75;46.88;98047.41;4909894;28;102520;-90
2022/07/30 10:58:06;;;;;;;;;1.00;1.00;;;;;25.76;46.98;98049.00;4909257;28;102190;-91
2022/07/30 11:00:53;;;;;;;;;3.00;2.00;;;;;25.77;46.90;98047.06;4906385;28;109566;-91
2022/07/30 11:03:26;;;;;;;;;1.67;1.67;;;;;25.74;46.86;98044.94;4899130;28;102433;-91
2022/07/30 11:06:13;;;;;;;;;1.67;1.67;;;;;25.76;46.84;98045.41;4916293;28;102712;-91
2022/07/30 11:08:42;;;;;;;;;2.00;1.67;;;;;25.72;47.05;98031.38;4909005;28;102720;-91
2022/07/30 11:11:21;;;;;;;;;1.00;1.00;;;;;25.75;46.88;98028.00;4927928;28;104234;-91
2022/07/30 11:14:08;;;;;;;;;2.00;2.00;;;;;25.74;46.95;98034.69;4907957;28;108075;-91
2022/07/30 11:16:35;;;;;;;;;2.00;1.67;;;;;25.75;46.93;98036.31;4924059;28;102295;-91
2022/07/30 11:19:12;;;;;;;;;2.00;2.00;;;;;25.75;46.85;98039.09;4791159;28;102610;-91
2022/07/30 11:22:25;;;;;;;;;2.00;2.00;;;;;25.76;46.92;98054.56;4908273;28;107409;-91
2022/07/30 11:24:52;;;;;;;;;0.00;0.00;;;;;25.73;46.74;98051.59;4907100;28;102146;-91
2022/07/30 11:27:44;;;;;;;;;1.00;1.00;;;;;25.75;46.79;98054.88;4895299;28;101986;-91
2022/07/30 11:30:14;;;;;;;;;1.33;1.33;;;;;25.74;47.03;98058.78;4912933;28;102272;-91
2022/07/30 11:32:47;;;;;;;;;1.33;1.00;;;;;25.72;46.75;98047.19;4916153;28;104053;-91
2022/07/30 11:35:22;;;;;;;;;2.00;2.00;;;;;25.73;46.88;98044.09;4892968;28;102354;-91
2022/07/30 11:37:58;;;;;;;;;1.33;1.33;;;;;25.73;46.89;98041.34;4908852;28;102068;-91
2022/07/30 11:40:29;;;;;;;;;2.00;2.00;;;;;25.71;47.02;98038.06;4912090;28;102131;-91
2022/07/30 11:43:19;;;;;;;;;1.00;1.00;;;;;25.71;46.98;98046.34;4910096;28;108690;-90